Bookmark and Share
Track history (hours):
 

Piper Inness

More information available from US FCC via Universal Licensing System and Coast Guard Vessel Documentation Center.

Last reported at 2014-Apr-19 04:33 UTC. Time now 2014-Apr-20 11:45 UTC.
Position N 33°15' W 117°57'.

; draft 2 m.

Type: Other ship. MMSI: 367017440.

NotesDate/timePositionNaut miles runAvg speedWind from/ knotsBaromVisibWave heightAir tempDewpointWater temp
2014-Apr-19 04:33N 33°15' W 117°57'7 7.0
2014-Apr-19 03:34N 33°09' W 117°54'5 5.0
2014-Apr-19 02:33N 33°05' W 117°50'1 1.2
2014-Apr-19 01:34N 33°04' W 117°51'1 1.4
2014-Apr-19 00:34N 33°03' W 117°50'1 0.5
2014-Apr-18 23:34N 33°03' W 117°51'1 1.2
2014-Apr-18 22:34N 33°02' W 117°50'0 0.2
2014-Apr-18 21:33N 33°01' W 117°50'1 0.8
2014-Apr-18 20:33N 33°01' W 117°50'2 1.5
2014-Apr-18 19:34N 32°59' W 117°49'1 0.9
2014-Apr-18 18:34N 32°59' W 117°49'0 0.5
2014-Apr-18 17:33N 32°58' W 117°49'2 1.8
2014-Apr-18 16:34N 32°57' W 117°49'1 1.1
2014-Apr-18 15:33N 32°56' W 117°49'2 2.3
2014-Apr-18 14:34N 32°56' W 117°46'1 0.6
2014-Apr-18 13:34N 32°56' W 117°47'1 1.2
2014-Apr-18 12:34N 32°57' W 117°48'1 1.0
2014-Apr-18 11:34N 32°57' W 117°49'1 1.0
2014-Apr-18 10:34N 32°57' W 117°50'0 0.4
2014-Apr-18 09:33N 32°57' W 117°50'2 2.3
2014-Apr-18 08:33N 32°59' W 117°51'3 3.4
2014-Apr-18 07:33N 33°02' W 117°53'3 3.4
2014-Apr-18 06:34N 33°05' W 117°55'4 3.5
2014-Apr-18 05:34N 33°08' W 117°57'5 5.4
2014-Apr-18 04:33N 33°12' W 118°00'  
2014-Apr-15 17:29N 33°46' W 118°13'3 3.2
2014-Apr-15 16:33N 33°44' W 118°11'1717.4
2014-Apr-15 15:34N 33°28' W 118°02'1717.3
2014-Apr-15 14:33N 33°12' W 117°54'6 3.2
2014-Apr-15 12:34N 33°06' W 117°51'1 1.1
2014-Apr-15 11:34N 33°06' W 117°52'2 1.5
2014-Apr-15 10:34N 33°04' W 117°51'3 2.6
2014-Apr-15 09:34N 33°03' W 117°53'3 3.0
2014-Apr-15 08:34N 33°01' W 117°50'1 0.7
2014-Apr-15 07:34N 33°01' W 117°51'1 0.6
2014-Apr-15 06:34N 33°00' W 117°51'3 2.9
2014-Apr-15 05:34N 32°58' W 117°48'3 1.4
2014-Apr-15 03:34N 32°56' W 117°46'1 1.2
2014-Apr-15 02:34N 32°55' W 117°47'2 2.3
2014-Apr-15 01:34N 32°53' W 117°46'3 3.3
2014-Apr-15 00:34N 32°51' W 117°43'2 1.9
2014-Apr-14 23:34N 32°53' W 117°43'1 1.3
2014-Apr-14 22:34N 32°53' W 117°42'4 4.2
2014-Apr-14 21:34N 32°56' W 117°46'1 1.5
2014-Apr-14 20:34N 32°55' W 117°44'4 4.3
2014-Apr-14 19:34N 32°58' W 117°48'3 2.8
2014-Apr-14 18:34N 33°01' W 117°50'4 4.0
2014-Apr-14 17:34N 33°04' W 117°53'4 4.3
2014-Apr-14 16:34N 33°07' W 117°55'6 6.3
2014-Apr-14 15:34N 33°11' W 118°01'1 1.4
2014-Apr-14 14:33N 33°12' W 117°60'5 4.7
2014-Apr-14 13:33N 33°10' W 117°55'  

Dump ship's entire track history

sailing weather and tide predictions

Piper Inness — WDC3984 — position and weather